Time;durP1;ratioP1;P1;durP2;ratioP2;P2;SDS_P1;SDS_P2;PMS_P1;PMS_P2;Temp;Humidity;BMP_temperature;BMP_pressure;BME280_temperature;BME280_humidity;BME280_pressure;Samples;Min_cycle;Max_cycle;Signal;HPM_P1;HPM_P2
2023/11/29 00:00:35;;;;;;;14.23;8.30;;;;;;;-1.99;100.00;99999.25;4865801;29;20056;-80
2023/11/29 00:03:00;;;;;;;14.68;7.97;;;;;;;-1.90;100.00;100004.28;4896274;29;20044;-81
2023/11/29 00:05:27;;;;;;;14.63;7.72;;;;;;;-1.86;100.00;100005.50;4879293;29;20494;-81
2023/11/29 00:07:53;;;;;;;16.35;8.13;;;;;;;-1.92;100.00;99989.56;4883571;29;20044;-78
2023/11/29 00:10:19;;;;;;;14.20;7.82;;;;;;;-1.88;100.00;99997.03;4854717;29;20045;-82
2023/11/29 00:12:45;;;;;;;17.27;8.43;;;;;;;-1.83;100.00;99989.31;4880940;29;20045;-82
2023/11/29 00:15:11;;;;;;;16.13;8.05;;;;;;;-1.82;100.00;99991.75;4882199;29;20039;-80
2023/11/29 00:17:37;;;;;;;16.88;8.65;;;;;;;-1.77;100.00;99993.75;4877259;29;20049;-82
2023/11/29 00:20:03;;;;;;;13.95;7.50;;;;;;;-1.75;100.00;99983.88;4883065;29;20041;-79
2023/11/29 00:22:29;;;;;;;14.68;7.95;;;;;;;-1.72;100.00;99978.19;4854260;29;20117;-80
2023/11/29 00:24:55;;;;;;;13.35;7.60;;;;;;;-1.69;100.00;99972.53;4869561;29;20469;-82
2023/11/29 00:27:21;;;;;;;14.77;8.10;;;;;;;-1.66;100.00;99979.97;4853166;29;20462;-80
2023/11/29 00:29:48;;;;;;;15.35;8.48;;;;;;;-1.62;100.00;99975.94;4873605;29;20089;-80
2023/11/29 00:32:14;;;;;;;14.52;8.38;;;;;;;-1.58;100.00;99971.88;4886140;29;20041;-79
2023/11/29 00:34:39;;;;;;;14.90;8.05;;;;;;;-1.53;100.00;99972.03;4893819;29;20130;-81
2023/11/29 00:37:08;;;;;;;13.68;8.10;;;;;;;-1.49;100.00;99969.78;4872703;29;20563;-85
2023/11/29 00:39:34;;;;;;;15.75;7.90;;;;;;;-1.47;100.00;99962.53;4852947;29;20825;-79
2023/11/29 00:42:01;;;;;;;18.08;8.30;;;;;;;-1.47;100.00;99955.47;4870991;29;20045;-81
2023/11/29 00:44:27;;;;;;;17.08;8.57;;;;;;;-1.46;100.00;99943.13;4865736;29;20073;-86
2023/11/29 00:46:52;;;;;;;14.98;7.65;;;;;;;-1.43;100.00;99940.88;4892174;29;20043;-86
2023/11/29 00:49:18;;;;;;;15.00;8.27;;;;;;;-1.43;100.00;99933.00;4887587;29;20045;-80
2023/11/29 00:51:44;;;;;;;17.42;9.00;;;;;;;-1.37;100.00;99932.16;4880051;29;20043;-81
2023/11/29 00:54:10;;;;;;;19.10;8.93;;;;;;;-1.35;100.00;99928.50;4889585;29;20044;-81
2023/11/29 00:56:36;;;;;;;16.58;8.55;;;;;;;-1.35;100.00;99918.84;4897546;29;20506;-81
2023/11/29 00:59:01;;;;;;;15.27;9.13;;;;;;;-1.31;100.00;99919.19;4862158;29;20154;-83
2023/11/29 01:01:27;;;;;;;17.95;8.90;;;;;;;-1.31;100.00;99911.31;4870635;29;20037;-82
2023/11/29 01:03:53;;;;;;;16.85;8.02;;;;;;;-1.30;100.00;99905.03;4859270;29;22006;-80
2023/11/29 01:06:19;;;;;;;15.57;7.93;;;;;;;-1.26;100.00;99906.25;4865988;29;20072;-79
2023/11/29 01:08:45;;;;;;;15.52;8.68;;;;;;;-1.24;100.00;99914.72;4887178;29;20786;-82
2023/11/29 01:11:11;;;;;;;14.45;8.75;;;;;;;-1.21;100.00;99914.31;4855311;29;20037;-77
2023/11/29 01:13:38;;;;;;;14.45;7.75;;;;;;;-1.19;100.00;99913.06;4869860;29;20044;-82
2023/11/29 01:16:03;;;;;;;16.25;9.45;;;;;;;-1.16;100.00;99912.63;4893192;29;20033;-82
2023/11/29 01:18:32;;;;;;;19.25;9.40;;;;;;;-1.13;100.00;99906.16;4909101;29;20793;-72
2023/11/29 01:20:58;;;;;;;18.05;10.32;;;;;;;-1.12;100.00;99908.56;4871351;29;20024;-82
2023/11/29 01:23:25;;;;;;;18.38;9.77;;;;;;;-1.12;100.00;99892.00;4865368;29;20033;-78
2023/11/29 01:25:51;;;;;;;18.75;10.57;;;;;;;-1.05;100.00;99897.19;4849742;29;20181;-79
2023/11/29 01:28:17;;;;;;;17.40;10.00;;;;;;;-1.02;100.00;99908.06;4873251;29;20041;-78
2023/11/29 01:30:43;;;;;;;19.73;11.40;;;;;;;-0.98;100.00;99904.00;4897808;29;20057;-78
2023/11/29 01:33:08;;;;;;;17.13;10.63;;;;;;;-0.94;100.00;99899.94;4868624;29;20392;-82
2023/11/29 01:35:34;;;;;;;20.20;10.68;;;;;;;-0.91;100.00;99902.13;4872548;29;20049;-80
2023/11/29 01:38:00;;;;;;;19.95;11.35;;;;;;;-0.88;100.00;99909.59;4901762;29;20063;-83
2023/11/29 01:40:26;;;;;;;18.48;10.95;;;;;;;-0.85;100.00;99893.38;4867504;29;20032;-89
2023/11/29 01:42:57;;;;;;;19.23;11.20;;;;;;;-0.78;100.00;99889.91;4876556;29;20032;-80
2023/11/29 01:45:24;;;;;;;19.00;11.48;;;;;;;-0.76;100.00;99890.47;4887629;29;20070;-85
2023/11/29 01:47:55;;;;;;;21.67;11.32;;;;;;;-0.74;100.00;99883.19;4888712;29;20138;-81
2023/11/29 01:50:25;;;;;;;24.25;11.65;;;;;;;-0.71;100.00;99888.81;4868161;29;20051;-80
2023/11/29 01:52:52;;;;;;;24.98;11.65;;;;;;;-0.69;100.00;99892.03;4883770;29;20041;-80
2023/11/29 01:55:21;;;;;;;22.58;13.15;;;;;;;-0.67;100.00;99892.63;4885761;29;20033;-79
2023/11/29 01:57:49;;;;;;;22.50;12.93;;;;;;;-0.66;100.00;99885.53;4889291;29;20043;-80
2023/11/29 02:00:15;;;;;;;19.10;12.55;;;;;;;-0.63;100.00;99882.47;4861922;29;20048;-79
2023/11/29 02:02:42;;;;;;;19.52;12.95;;;;;;;-0.63;100.00;99882.47;4863967;29;20065;-79
2023/11/29 02:05:08;;;;;;;20.98;13.20;;;;;;;-0.61;100.00;99873.34;4868769;29;20041;-78
2023/11/29 02:07:35;;;;;;;22.77;13.23;;;;;;;-0.59;100.00;99871.31;4868799;29;20044;-79
2023/11/29 02:10:03;;;;;;;23.20;12.85;;;;;;;-0.57;100.00;99865.81;4861375;29;20049;-82
2023/11/29 02:12:29;;;;;;;20.58;12.32;;;;;;;-0.58;100.00;99856.34;4851985;29;20045;-78
2023/11/29 02:14:58;;;;;;;21.48;12.80;;;;;;;-0.58;100.00;99851.88;4868195;29;20450;-80
2023/11/29 02:17:24;;;;;;;24.25;13.70;;;;;;;-0.55;100.00;99845.34;4874583;29;20044;-81
2023/11/29 02:19:51;;;;;;;21.92;13.43;;;;;;;-0.52;100.00;99844.94;4849887;29;20041;-78
2023/11/29 02:22:18;;;;;;;22.48;13.60;;;;;;;-0.49;100.00;99841.06;4884050;29;20040;-76
2023/11/29 02:24:47;;;;;;;23.48;13.80;;;;;;;-0.46;100.00;99851.97;4868189;29;20044;-80
2023/11/29 02:27:13;;;;;;;23.98;13.45;;;;;;;-0.45;100.00;99850.94;4855795;29;20406;-86
2023/11/29 02:29:42;;;;;;;22.27;13.55;;;;;;;-0.44;100.00;99841.22;4899607;29;20039;-87
2023/11/29 02:32:09;;;;;;;25.55;14.15;;;;;;;-0.44;100.00;99826.22;4876552;29;20544;-82
2023/11/29 02:34:37;;;;;;;23.52;12.82;;;;;;;-0.41;100.00;99825.78;4898346;29;20041;-80
2023/11/29 02:37:04;;;;;;;25.73;13.50;;;;;;;-0.39;100.00;99834.28;4866678;29;20063;-79
2023/11/29 02:39:30;;;;;;;24.85;15.10;;;;;;;-0.38;100.00;99825.34;4903272;29;20041;-86
2023/11/29 02:41:56;;;;;;;24.42;13.63;;;;;;;-0.36;100.00;99831.19;4879808;29;20052;-82
2023/11/29 02:44:23;;;;;;;25.67;14.65;;;;;;;-0.36;100.00;99823.28;4878626;29;20163;-80
2023/11/29 02:46:49;;;;;;;25.13;14.15;;;;;;;-0.34;100.00;99826.53;4865096;29;20033;-83
2023/11/29 02:49:16;;;;;;;27.45;15.45;;;;;;;-0.31;100.00;99826.06;4871890;29;20049;-79
2023/11/29 02:51:41;;;;;;;23.05;13.48;;;;;;;-0.31;100.00;99814.75;4881328;29;20100;-81
2023/11/29 02:54:07;;;;;;;24.10;14.32;;;;;;;-0.26;100.00;99816.72;4856083;29;20491;-81
2023/11/29 02:56:32;;;;;;;22.83;14.77;;;;;;;-0.26;100.00;99814.09;4888671;29;20036;-79
2023/11/29 02:58:58;;;;;;;25.83;13.80;;;;;;;-0.25;100.00;99813.88;4882352;29;20036;-82
2023/11/29 03:01:24;;;;;;;27.52;13.98;;;;;;;-0.25;100.00;99808.63;4917544;29;20045;-80
2023/11/29 03:03:50;;;;;;;26.00;14.02;;;;;;;-0.23;100.00;99811.81;4885489;29;20037;-83
2023/11/29 03:06:16;;;;;;;28.75;14.57;;;;;;;-0.22;100.00;99808.16;4897335;29;20032;-83
2023/11/29 03:08:42;;;;;;;23.13;14.60;;;;;;;-0.22;100.00;99804.72;4907769;29;20095;-80
2023/11/29 03:11:08;;;;;;;24.38;14.30;;;;;;;-0.20;100.00;99797.41;4904795;29;20036;-80
2023/11/29 03:13:34;;;;;;;23.75;15.40;;;;;;;-0.19;100.00;99801.66;4892680;29;20037;-80
2023/11/29 03:16:02;;;;;;;22.45;13.80;;;;;;;-0.17;100.00;99796.97;4875560;29;20034;-82
2023/11/29 03:18:31;;;;;;;18.17;12.10;;;;;;;-0.17;100.00;99796.97;4864104;29;20040;-81
2023/11/29 03:20:57;;;;;;;21.38;13.93;;;;;;;-0.16;100.00;99795.94;4883486;29;20125;-81
2023/11/29 03:23:23;;;;;;;22.85;13.88;;;;;;;-0.13;100.00;99795.53;4879282;29;20040;-81
2023/11/29 03:25:49;;;;;;;22.38;13.13;;;;;;;-0.14;100.00;99786.00;4864704;29;20876;-80
2023/11/29 03:28:14;;;;;;;22.13;13.02;;;;;;;-0.11;100.00;99788.19;4852811;29;20039;-83
2023/11/29 03:30:40;;;;;;;19.73;12.10;;;;;;;-0.13;100.00;99775.25;4888377;29;20039;-84
2023/11/29 03:33:05;;;;;;;21.88;13.38;;;;;;;-0.11;100.00;99777.66;4873188;29;20075;-80
2023/11/29 03:35:31;;;;;;;20.45;13.48;;;;;;;-0.11;100.00;99772.41;4864609;29;20032;-79
2023/11/29 03:37:57;;;;;;;20.38;12.50;;;;;;;-0.10;100.00;99768.75;4868625;29;20044;-77
2023/11/29 03:40:22;;;;;;;19.67;13.98;;;;;;;-0.10;100.00;99766.09;4865296;29;20096;-80
2023/11/29 03:42:48;;;;;;;21.13;13.38;;;;;;;-0.07;100.00;99765.66;4860988;29;20040;-78
2023/11/29 03:45:14;;;;;;;19.77;13.25;;;;;;;-0.07;100.00;99761.22;4882951;29;20068;-79
2023/11/29 03:47:39;;;;;;;19.75;12.30;;;;;;;-0.06;100.00;99762.00;4901556;29;20144;-78
2023/11/29 03:50:06;;;;;;;18.70;12.00;;;;;;;-0.06;100.00;99759.38;4904423;29;20035;-75
2023/11/29 03:52:31;;;;;;;19.40;13.07;;;;;;;-0.04;100.00;99757.31;4885672;29;20068;-80
2023/11/29 03:54:57;;;;;;;22.08;13.32;;;;;;;-0.04;100.00;99752.84;4871184;29;20131;-81
2023/11/29 03:57:22;;;;;;;23.10;13.90;;;;;;;-0.05;100.00;99742.56;4884512;29;20502;-80
2023/11/29 03:59:48;;;;;;;18.25;11.77;;;;;;;-0.04;100.00;99757.31;4905974;29;20028;-78
2023/11/29 04:02:14;;;;;;;20.40;13.13;;;;;;;-0.06;100.00;99751.47;4886043;29;20072;-81
2023/11/29 04:04:40;;;;;;;22.10;13.43;;;;;;;-0.05;100.00;99743.34;4853514;29;20062;-78
2023/11/29 04:07:06;;;;;;;20.83;13.27;;;;;;;-0.06;100.00;99740.97;4851752;29;20529;-79
2023/11/29 04:09:31;;;;;;;22.05;12.70;;;;;;;-0.04;100.00;99736.25;4870233;29;20044;-80
2023/11/29 04:12:00;;;;;;;23.60;13.43;;;;;;;-0.04;100.00;99731.00;4871768;29;20137;-80
2023/11/29 04:14:25;;;;;;;20.75;12.88;;;;;;;-0.06;100.00;99733.88;4886376;29;20112;-80
2023/11/29 04:16:51;;;;;;;19.85;13.25;;;;;;;-0.03;100.00;99735.22;4866766;29;20028;-80
2023/11/29 04:19:16;;;;;;;19.58;12.13;;;;;;;-0.02;100.00;99740.25;4860789;29;20059;-79
2023/11/29 04:21:42;;;;;;;20.33;13.57;;;;;;;0.00;100.00;99732.16;4881338;29;20830;-81
2023/11/29 04:24:09;;;;;;;17.63;12.25;;;;;;;-0.01;100.00;99731.34;4866287;29;20048;-79
2023/11/29 04:26:40;;;;;;;18.77;13.27;;;;;;;0.01;100.00;99728.50;4906754;29;20067;-78
2023/11/29 04:29:07;;;;;;;19.30;11.35;;;;;;;0.02;100.00;99719.56;4899765;29;20036;-80
2023/11/29 04:31:37;;;;;;;18.40;12.75;;;;;;;0.03;100.00;99726.44;4863526;29;20047;-81
2023/11/29 04:34:04;;;;;;;18.38;12.43;;;;;;;0.04;100.00;99712.25;4853417;29;20044;-80
2023/11/29 04:36:30;;;;;;;22.42;11.93;;;;;;;0.05;100.00;99708.59;4901927;29;20127;-78
2023/11/29 04:38:56;;;;;;;19.92;12.70;;;;;;;0.06;100.00;99707.56;4879772;29;20136;-79
2023/11/29 04:41:23;;;;;;;19.67;12.48;;;;;;;0.06;100.00;99707.56;4888392;29;20048;-78
2023/11/29 04:43:50;;;;;;;;;;;;;;;0.06;100.00;99704.91;4889766;29;20039;-79
2023/11/29 04:46:16;;;;;;;18.33;11.10;;;;;;;0.07;100.00;99700.44;4860079;29;20314;-78
2023/11/29 04:48:43;;;;;;;17.25;11.65;;;;;;;0.06;100.00;99702.28;4883301;29;20118;-79
2023/11/29 04:51:09;;;;;;;18.02;11.40;;;;;;;0.06;100.00;99696.22;4883733;29;20067;-79
2023/11/29 04:53:36;;;;;;;17.27;12.82;;;;;;;0.06;100.00;99697.03;4894693;29;20451;-78
2023/11/29 04:56:02;;;;;;;16.65;11.18;;;;;;;0.07;100.00;99701.28;4900915;29;20048;-79
2023/11/29 04:58:28;;;;;;;;;;;;;;;0.08;100.00;99704.72;4884132;29;20032;-79
2023/11/29 05:00:54;;;;;;;14.27;9.52;;;;;;;0.08;100.00;99696.81;4888150;29;20449;-79
2023/11/29 05:03:20;;;;;;;16.25;10.75;;;;;;;0.09;100.00;99693.94;4900292;29;20039;-77
2023/11/29 05:05:47;;;;;;;16.50;11.02;;;;;;;0.08;100.00;99692.34;4860410;29;20042;-78
2023/11/29 05:08:14;;;;;;;15.63;10.90;;;;;;;0.08;100.00;99684.44;4883615;29;20527;-78
2023/11/29 05:10:40;;;;;;;14.70;11.52;;;;;;;0.09;100.00;99688.69;4907677;29;20046;-82
2023/11/29 05:13:06;;;;;;;14.40;9.77;;;;;;;0.09;100.00;99688.69;4869952;29;20444;-78
2023/11/29 05:15:34;;;;;;;14.68;10.25;;;;;;;0.11;100.00;99691.88;4900729;29;20040;-77
2023/11/29 05:18:04;;;;;;;14.45;9.88;;;;;;;0.11;100.00;99686.63;4886153;29;20446;-80
2023/11/29 05:20:30;;;;;;;15.13;11.18;;;;;;;0.11;100.00;99691.88;4884178;29;20077;-78
2023/11/29 05:22:56;;;;;;;15.30;10.18;;;;;;;0.08;100.00;99681.81;4902866;29;20104;-79
2023/11/29 05:25:23;;;;;;;16.08;10.55;;;;;;;0.09;100.00;99686.06;4865054;29;20041;-79
2023/11/29 05:27:49;;;;;;;15.77;11.45;;;;;;;0.08;100.00;99681.81;4887141;29;20068;-79
2023/11/29 05:30:15;;;;;;;15.35;11.10;;;;;;;0.07;100.00;99680.22;4868828;29;20068;-80
2023/11/29 05:32:41;;;;;;;14.60;9.98;;;;;;;0.09;100.00;99678.16;4868181;29;20045;-79
2023/11/29 05:35:07;;;;;;;18.77;10.90;;;;;;;0.08;100.00;99673.91;4872013;29;20028;-79
2023/11/29 05:37:33;;;;;;;14.00;9.50;;;;;;;0.09;100.00;99672.88;4904872;29;20809;-79
2023/11/29 05:39:58;;;;;;;14.38;10.80;;;;;;;0.07;100.00;99667.06;4894420;29;20036;-79
2023/11/29 05:42:24;;;;;;;13.52;9.60;;;;;;;0.08;100.00;99671.28;4892143;29;20035;-79
2023/11/29 05:44:54;;;;;;;14.32;10.25;;;;;;;0.08;100.00;99673.91;4864177;29;20036;-77
2023/11/29 05:50:15;;;;;;;13.10;9.25;;;;;;;0.10;100.00;99674.50;4888907;29;20064;-72
2023/11/29 05:52:40;;;;;;;13.18;10.15;;;;;;;0.12;100.00;99677.69;4890945;29;20120;-71
2023/11/29 05:55:06;;;;;;;13.23;9.32;;;;;;;0.11;100.00;99676.09;4873952;29;20124;-71
2023/11/29 05:57:32;;;;;;;13.57;10.05;;;;;;;0.11;100.00;99677.91;4859928;29;20028;-69
2023/11/29 06:00:07;;;;;;;13.90;10.45;;;;;;;0.11;100.00;99676.09;4879274;29;20158;-70
2023/11/29 06:02:39;;;;;;;13.85;10.07;;;;;;;0.10;100.00;99674.50;4873384;29;20033;-70
2023/11/29 06:05:05;;;;;;;14.70;10.32;;;;;;;0.12;100.00;99682.94;4874596;29;20131;-70
2023/11/29 06:07:33;;;;;;;18.27;10.93;;;;;;;0.11;100.00;99676.09;4875893;29;20048;-70
2023/11/29 06:09:59;;;;;;;15.38;10.93;;;;;;;0.13;100.00;99674.03;4864514;29;20036;-71
2023/11/29 06:12:25;;;;;;;17.40;12.07;;;;;;;0.12;100.00;99677.69;4857241;29;20033;-71
2023/11/29 06:14:50;;;;;;;15.85;11.65;;;;;;;0.14;100.00;99670.38;4891015;29;20047;-71
2023/11/29 06:17:16;;;;;;;17.00;11.63;;;;;;;0.13;100.00;99671.38;4862117;29;20518;-71
2023/11/29 06:19:44;;;;;;;18.00;12.48;;;;;;;0.12;100.00;99667.16;4892044;29;20055;-71
2023/11/29 06:22:13;;;;;;;18.27;11.52;;;;;;;0.11;100.00;99660.28;4875174;29;20040;-72
2023/11/29 06:24:39;;;;;;;19.92;13.27;;;;;;;0.12;100.00;99667.16;4887390;29;20426;-72
2023/11/29 06:27:05;;;;;;;18.77;13.52;;;;;;;0.13;100.00;99671.38;4878961;29;20052;-71
2023/11/29 06:29:32;;;;;;;21.40;13.85;;;;;;;0.14;100.00;99673.03;4859579;29;20080;-71
2023/11/29 06:31:57;;;;;;;19.02;12.75;;;;;;;0.14;100.00;99672.22;4890761;29;20028;-70
2023/11/29 06:34:23;;;;;;;21.48;12.98;;;;;;;0.15;100.00;99663.28;4854317;29;20064;-69
2023/11/29 06:36:49;;;;;;;20.75;14.25;;;;;;;0.15;100.00;99666.72;4893803;29;20040;-70
2023/11/29 06:39:19;;;;;;;22.67;14.23;;;;;;;0.16;100.00;99678.06;4874109;29;20064;-70
2023/11/29 06:41:47;;;;;;;21.88;13.50;;;;;;;0.17;100.00;99675.19;4873488;29;20048;-71
2023/11/29 06:44:13;;;;;;;19.77;13.05;;;;;;;0.17;100.00;99685.72;4871473;29;20092;-72
2023/11/29 06:46:39;;;;;;;19.95;12.77;;;;;;;0.18;100.00;99679.41;4854092;29;20422;-70
2023/11/29 06:49:09;;;;;;;19.60;13.38;;;;;;;0.21;100.00;99678.97;4895139;29;20043;-72
2023/11/29 06:51:36;;;;;;;20.50;14.15;;;;;;;0.23;100.00;99673.47;4870618;29;20041;-71
2023/11/29 06:54:02;;;;;;;23.13;14.13;;;;;;;0.23;100.00;99674.28;4892677;29;20081;-72
2023/11/29 06:56:28;;;;;;;19.73;12.95;;;;;;;0.24;100.00;99670.59;4894771;29;20072;-72
2023/11/29 06:58:54;;;;;;;;;;;;;;;0.25;100.00;99680.09;4872758;29;20055;-70
2023/11/29 07:01:20;;;;;;;22.63;14.20;;;;;;;0.25;100.00;99674.84;4858536;29;19916;-72
2023/11/29 07:03:46;;;;;;;22.05;15.20;;;;;;;0.25;100.00;99680.09;4891973;29;20073;-71
2023/11/29 07:06:22;;;;;;;19.38;12.85;;;;;;;0.25;100.00;99685.38;4890534;29;20433;-72
2023/11/29 07:08:49;;;;;;;20.45;13.55;;;;;;;0.25;100.00;99682.75;4873438;29;20459;-72
2023/11/29 07:11:15;;;;;;;23.33;14.07;;;;;;;0.26;100.00;99686.97;4889598;29;20113;-71
2023/11/29 07:13:41;;;;;;;20.50;13.93;;;;;;;0.25;100.00;99688.00;4864351;29;20083;-71
2023/11/29 07:16:07;;;;;;;22.30;14.73;;;;;;;0.26;100.00;99678.28;4889203;29;20148;-72
2023/11/29 07:18:33;;;;;;;23.98;15.40;;;;;;;0.26;100.00;99676.44;4893581;29;20036;-72
2023/11/29 07:20:59;;;;;;;21.88;13.13;;;;;;;0.27;100.00;99685.13;4888162;29;20060;-72
2023/11/29 07:23:25;;;;;;;19.48;13.15;;;;;;;0.27;100.00;99682.50;4891470;29;20071;-72
2023/11/29 07:25:50;;;;;;;19.60;12.98;;;;;;;0.28;100.00;99685.97;4871974;29;20045;-72
2023/11/29 07:28:16;;;;;;;19.33;13.55;;;;;;;0.29;100.00;99690.19;4872753;29;20036;-71
2023/11/29 07:30:42;;;;;;;19.15;12.35;;;;;;;0.30;100.00;99686.53;4870502;29;20392;-70
2023/11/29 07:33:08;;;;;;;20.05;12.63;;;;;;;0.31;100.00;99680.25;4874785;29;20422;-70
2023/11/29 07:35:34;;;;;;;19.15;12.95;;;;;;;0.31;100.00;99681.03;4890089;29;20111;-70
2023/11/29 07:38:00;;;;;;;18.17;12.50;;;;;;;0.33;100.00;99678.16;4875708;29;20755;-71
2023/11/29 07:40:26;;;;;;;15.13;10.65;;;;;;;0.30;100.00;99681.28;4872054;29;20113;-72
2023/11/29 07:42:52;;;;;;;17.33;11.55;;;;;;;0.31;100.00;99674.97;4900850;29;20662;-71
2023/11/29 07:45:18;;;;;;;17.33;12.38;;;;;;;0.32;100.00;99687.91;4893066;29;20044;-71
2023/11/29 07:47:44;;;;;;;19.02;12.93;;;;;;;0.31;100.00;99681.03;4906407;29;20055;-72
2023/11/29 07:50:13;;;;;;;16.63;11.85;;;;;;;0.31;100.00;99681.03;4870270;29;20044;-73
2023/11/29 07:52:42;;;;;;;18.00;12.02;;;;;;;0.32;100.00;99680.00;4873886;29;20044;-72
2023/11/29 07:55:08;;;;;;;17.67;12.07;;;;;;;0.32;100.00;99681.84;4892342;29;20533;-73
2023/11/29 07:57:34;;;;;;;17.90;12.10;;;;;;;0.32;100.00;99685.28;4875181;29;20043;-72
2023/11/29 08:00:05;;;;;;;19.27;11.95;;;;;;;0.34;100.00;99685.03;4875695;29;20028;-71
2023/11/29 08:02:38;;;;;;;23.15;12.75;;;;;;;0.33;100.00;99684.22;4886281;29;20238;-73
2023/11/29 08:05:04;;;;;;;19.00;11.77;;;;;;;0.35;100.00;99686.66;4873095;29;20100;-71
2023/11/29 08:07:32;;;;;;;19.45;12.13;;;;;;;0.35;100.00;99692.72;4891564;29;20041;-72
2023/11/29 08:10:01;;;;;;;17.27;11.98;;;;;;;0.36;100.00;99688.25;4890390;29;20115;-72
2023/11/29 08:12:27;;;;;;;17.27;11.48;;;;;;;0.37;100.00;99684.59;4892062;29;20430;-73
2023/11/29 08:14:53;;;;;;;19.73;13.07;;;;;;;0.38;100.00;99691.47;4874238;29;20097;-72
2023/11/29 08:17:19;;;;;;;21.13;12.07;;;;;;;0.38;100.00;99683.56;4875472;29;20040;-70
2023/11/29 08:19:45;;;;;;;19.83;12.73;;;;;;;0.39;100.00;99690.44;4872017;29;20051;-71
2023/11/29 08:22:11;;;;;;;17.15;11.90;;;;;;;0.41;100.00;99680.50;4875820;29;20040;-72
2023/11/29 08:24:37;;;;;;;17.13;11.75;;;;;;;0.40;100.00;99687.56;4836628;29;20041;-72
2023/11/29 08:27:03;;;;;;;19.20;13.23;;;;;;;0.39;100.00;99683.31;4857968;29;20052;-70
2023/11/29 08:29:29;;;;;;;19.13;11.52;;;;;;;0.40;100.00;99687.56;4900787;29;20580;-72
2023/11/29 08:31:55;;;;;;;18.60;12.10;;;;;;;0.43;100.00;99691.59;4889142;29;20070;-71
2023/11/29 08:34:20;;;;;;;18.45;12.77;;;;;;;0.43;100.00;99691.59;4871234;29;20036;-71
2023/11/29 08:36:46;;;;;;;19.05;11.88;;;;;;;0.45;100.00;99676.34;4871934;29;20257;-72
2023/11/29 08:39:11;;;;;;;16.35;11.82;;;;;;;0.46;100.00;99685.84;4876430;29;20557;-71
2023/11/29 08:41:37;;;;;;;19.25;12.57;;;;;;;0.47;100.00;99676.91;4890662;29;20145;-71
2023/11/29 08:44:04;;;;;;;18.35;11.40;;;;;;;0.48;100.00;99676.69;4874495;29;20040;-71
2023/11/29 08:46:29;;;;;;;17.75;11.98;;;;;;;0.52;100.00;99679.66;4872026;29;20489;-71
2023/11/29 08:48:55;;;;;;;18.90;11.70;;;;;;;0.54;100.00;99675.78;4872967;29;20041;-72
2023/11/29 08:51:21;;;;;;;18.35;12.07;;;;;;;0.57;100.00;99674.50;4868835;29;20915;-72
2023/11/29 08:53:48;;;;;;;18.67;12.30;;;;;;;0.60;100.00;99678.50;4855722;29;20068;-72
2023/11/29 08:56:18;;;;;;;16.52;11.63;;;;;;;0.60;100.00;99678.50;4886786;29;20028;-72
2023/11/29 08:58:47;;;;;;;16.80;11.13;;;;;;;0.61;100.00;99680.13;4889357;29;20039;-72
2023/11/29 09:01:20;;;;;;;17.00;10.88;;;;;;;0.61;100.00;99674.84;4850329;29;20049;-70
2023/11/29 09:03:47;;;;;;;17.70;11.57;;;;;;;0.60;100.00;99671.41;4887550;29;20127;-71
2023/11/29 09:06:13;;;;;;;15.48;10.85;;;;;;;0.59;100.00;99672.44;4902800;29;20064;-73
2023/11/29 09:08:39;;;;;;;17.50;11.50;;;;;;;0.61;100.00;99674.84;4900587;29;20561;-72
2023/11/29 09:11:04;;;;;;;19.02;11.10;;;;;;;0.58;100.00;99676.13;4874338;29;20052;-73
2023/11/29 09:13:30;;;;;;;17.63;12.20;;;;;;;0.59;100.00;99669.81;4856162;29;20055;-72
2023/11/29 09:15:56;;;;;;;16.90;11.75;;;;;;;0.62;100.00;99677.28;4889043;29;20028;-72
2023/11/29 09:18:22;;;;;;;18.13;11.30;;;;;;;0.63;100.00;99683.34;4871598;29;20075;-73
2023/11/29 09:20:48;;;;;;;18.50;11.93;;;;;;;0.64;100.00;99685.75;4897067;29;20324;-71
2023/11/29 09:23:14;;;;;;;18.98;11.63;;;;;;;0.66;100.00;99670.50;4858325;29;20640;-72
2023/11/29 09:25:39;;;;;;;18.20;12.32;;;;;;;0.70;100.00;99673.47;4908467;29;20059;-70
2023/11/29 09:28:06;;;;;;;17.27;11.88;;;;;;;0.71;100.00;99670.59;4876903;29;20130;-73
2023/11/29 09:30:33;;;;;;;20.88;12.65;;;;;;;0.74;100.00;99670.13;4873675;29;20063;-70
2023/11/29 09:32:58;;;;;;;18.05;11.88;;;;;;;0.79;100.00;99677.34;4872356;29;20391;-72
2023/11/29 09:35:24;;;;;;;18.92;13.02;;;;;;;0.78;100.00;99676.56;4857664;29;20558;-72
2023/11/29 09:37:50;;;;;;;16.73;12.20;;;;;;;0.78;100.00;99667.84;4868696;29;20567;-72
2023/11/29 09:40:16;;;;;;;17.80;11.68;;;;;;;0.79;100.00;99670.25;4857299;29;20032;-72
2023/11/29 09:42:43;;;;;;;18.25;12.52;;;;;;;0.81;100.00;99670.00;4849933;29;20530;-74
2023/11/29 09:45:20;;;;;;;16.65;11.38;;;;;;;0.79;100.00;99670.25;4858954;29;20037;-72
2023/11/29 09:47:46;;;;;;;20.38;12.60;;;;;;;0.80;100.00;99666.56;4898349;29;20486;-69
2023/11/29 09:50:12;;;;;;;21.00;12.50;;;;;;;0.79;100.00;99672.88;4856184;29;20036;-71
2023/11/29 09:52:38;;;;;;;18.02;11.57;;;;;;;0.79;100.00;99667.63;4900520;29;20041;-69
2023/11/29 09:55:04;;;;;;;21.70;11.93;;;;;;;0.77;100.00;99664.41;4888753;29;20487;-70
2023/11/29 09:57:30;;;;;;;21.40;14.95;;;;;;;0.77;100.00;99656.50;4875194;29;20039;-72
2023/11/29 09:59:56;;;;;;;22.50;13.93;;;;;;;0.78;100.00;99654.66;4888704;29;20033;-73
2023/11/29 10:02:21;;;;;;;19.67;11.20;;;;;;;0.75;100.00;99661.22;4865270;29;20049;-71
2023/11/29 10:04:47;;;;;;;18.40;13.00;;;;;;;0.77;100.00;99669.69;4870043;29;20044;-72
2023/11/29 10:07:14;;;;;;;22.00;13.05;;;;;;;0.75;100.00;99661.22;4857400;29;20040;-70
2023/11/29 10:09:40;;;;;;;15.70;11.90;;;;;;;0.77;100.00;99660.97;4864393;29;20041;-72
2023/11/29 10:12:07;;;;;;;18.77;11.70;;;;;;;0.78;100.00;99660.75;4878175;29;20859;-71
2023/11/29 10:14:38;;;;;;;17.98;11.98;;;;;;;0.77;100.00;99659.16;4881047;29;20029;-72
2023/11/29 10:17:04;;;;;;;17.58;12.75;;;;;;;0.77;100.00;99661.78;4842982;29;20139;-71
2023/11/29 10:19:31;;;;;;;17.73;11.32;;;;;;;0.78;100.00;99660.75;4878276;29;20464;-71
2023/11/29 10:22:00;;;;;;;20.08;12.85;;;;;;;0.78;100.00;99663.38;4893104;29;20422;-73
2023/11/29 10:24:26;;;;;;;18.13;11.77;;;;;;;0.77;100.00;99656.50;4891708;29;20039;-69
2023/11/29 10:26:52;;;;;;;17.65;11.98;;;;;;;0.77;100.00;99664.41;4877799;29;20114;-71
2023/11/29 10:29:17;;;;;;;19.70;12.68;;;;;;;0.79;100.00;99659.72;4874616;29;20074;-71
2023/11/29 10:31:46;;;;;;;17.77;11.57;;;;;;;0.78;100.00;99659.94;4889671;29;20098;-71
2023/11/29 10:34:14;;;;;;;20.15;13.05;;;;;;;0.78;100.00;99662.56;4901935;29;20040;-71
2023/11/29 10:36:41;;;;;;;17.77;11.68;;;;;;;0.78;100.00;99662.56;4875317;29;20040;-70
2023/11/29 10:39:14;;;;;;;17.90;13.07;;;;;;;0.77;100.00;99664.41;4869750;29;20546;-72
2023/11/29 10:42:01;;;;;;;18.83;13.05;;;;;;;0.79;100.00;99657.06;4874875;29;20748;-72
2023/11/29 10:44:35;;;;;;;18.70;11.98;;;;;;;0.82;100.00;99661.09;4871733;29;20093;-72
2023/11/29 10:47:26;;;;;;;20.10;12.80;;;;;;;0.85;100.00;99657.19;4874049;29;20051;-71
2023/11/29 10:50:02;;;;;;;;;;;;;;;0.86;100.00;99650.88;4879866;29;20598;-71
2023/11/29 10:52:28;;;;;;;20.10;11.20;;;;;;;0.89;100.00;99653.06;4867299;29;19923;-72
2023/11/29 10:54:55;;;;;;;21.60;14.07;;;;;;;0.90;100.00;99652.81;4860588;29;20036;-71
2023/11/29 10:57:26;;;;;;;;;;;;;;;0.92;100.00;99650.75;4876174;29;20036;-72
2023/11/29 11:00:04;;;;;;;19.02;12.80;;;;;;;0.89;100.00;99651.22;4890353;29;19965;-71
2023/11/29 11:02:30;;;;;;;20.35;13.95;;;;;;;0.90;100.00;99657.28;4873244;29;20032;-73
2023/11/29 11:05:07;;;;;;;23.15;14.30;;;;;;;0.92;100.00;99649.94;4875945;29;20436;-71
2023/11/29 11:07:41;;;;;;;20.50;14.38;;;;;;;0.94;100.00;99647.88;4873264;29;20039;-71
2023/11/29 11:10:11;;;;;;;18.73;13.27;;;;;;;0.90;100.00;99646.75;4863103;29;20517;-71
2023/11/29 11:12:38;;;;;;;20.63;12.52;;;;;;;0.89;100.00;99653.06;4869752;29;20107;-71
2023/11/29 11:15:11;;;;;;;17.42;11.95;;;;;;;0.90;100.00;99652.03;4853037;29;20039;-71
2023/11/29 11:17:38;;;;;;;19.13;12.50;;;;;;;0.89;100.00;99639.88;4869876;29;20056;-70